Terminal Aerodrome Forecast
Issued by NWS

Home | Current Version | Previous Version | Text Only | Print | Product List | Glossary On
Versions: 1 2 3 4 5 6 7 8 9 10 11 12 13 14 15 16 17
000
FTUS41 KCAR 202300
TAFBHB
TAF
KBHB 202339Z 2100/2124 20014KT P6SM SCT020 OVC035
     FM210600 20009KT P6SM OVC020
     FM210900 20009KT 3SM BR BKN003
     FM211300 20012G22KT P6SM SCT003 BKN250
     FM211700 18015G25KT P6SM BKN015
     FM212000 16012G22KT P6SM BKN003
      AMD LTD TO CLD VIS AND WIND=

USA.gov is the U.S. government's official web portal to all federal, state and local government web resources and services.